BTK7556 WAHS-WIHH
Flight info
| Callsign | BTK7556 |
|---|---|
| Flight time | 0h 43m |
| Altitude | 26000 |
| Route | KIDET W16 IMU |
| Aircraft | A320/M-SDE3FGHIRWY/LB1 |
Departure
| Time | 2026-04-28 06:10 |
|---|---|
| Airport | Jenderal Ahmad Yani Airport (WAHS) |
Arrival
| Time | 2026-04-28 06:53 |
|---|---|
| Airport | Halim Perdanakusuma International Airport (WIHH) |
| Time | Latitude | Longitude | Altitude | Speed | Heading |
|---|---|---|---|---|---|
| 2026-04-28 05:55 | -6.96752 | 110.37496 | 22 ft | 0 kts | 41° |
| 2026-04-28 06:01 | -6.96759 | 110.37489 | 22 ft | 2 kts | 41° |
| 2026-04-28 06:01 | -6.96771 | 110.37479 | 21 ft | 2 kts | 41° |
| 2026-04-28 06:01 | -6.96782 | 110.37470 | 21 ft | 2 kts | 44° |
| 2026-04-28 06:02 | -6.96791 | 110.37457 | 21 ft | 2 kts | 69° |
| 2026-04-28 06:02 | -6.96794 | 110.37442 | 21 ft | 2 kts | 88° |
| 2026-04-28 06:02 | -6.96793 | 110.37427 | 21 ft | 2 kts | 108° |
| 2026-04-28 06:02 | -6.96786 | 110.37414 | 21 ft | 1 kts | 126° |
| 2026-04-28 06:03 | -6.96782 | 110.37408 | 21 ft | 1 kts | 131° |
| 2026-04-28 06:03 | -6.96781 | 110.37408 | 21 ft | 0 kts | 130° |
| 2026-04-28 06:04 | -6.96782 | 110.37408 | 21 ft | 0 kts | 130° |
| 2026-04-28 06:05 | -6.96793 | 110.37421 | 21 ft | 3 kts | 130° |
| 2026-04-28 06:05 | -6.96817 | 110.37450 | 21 ft | 6 kts | 130° |
| 2026-04-28 06:05 | -6.96855 | 110.37494 | 22 ft | 9 kts | 130° |
| 2026-04-28 06:05 | -6.96892 | 110.37537 | 23 ft | 7 kts | 130° |
| 2026-04-28 06:06 | -6.96936 | 110.37553 | 24 ft | 7 kts | 211° |
| 2026-04-28 06:06 | -6.96985 | 110.37512 | 24 ft | 10 kts | 220° |
| 2026-04-28 06:06 | -6.97046 | 110.37460 | 25 ft | 12 kts | 221° |
| 2026-04-28 06:06 | -6.97122 | 110.37414 | 27 ft | 12 kts | 176° |
| 2026-04-28 06:07 | -6.97187 | 110.37468 | 27 ft | 12 kts | 129° |
| 2026-04-28 06:07 | -6.97245 | 110.37538 | 28 ft | 13 kts | 130° |
| 2026-04-28 06:07 | -6.97312 | 110.37618 | 28 ft | 15 kts | 130° |
| 2026-04-28 06:07 | -6.97388 | 110.37708 | 29 ft | 17 kts | 130° |
| 2026-04-28 06:08 | -6.97467 | 110.37801 | 30 ft | 18 kts | 130° |
| 2026-04-28 06:08 | -6.97549 | 110.37900 | 31 ft | 18 kts | 130° |
| 2026-04-28 06:08 | -6.97634 | 110.38001 | 31 ft | 18 kts | 130° |
| 2026-04-28 06:08 | -6.97685 | 110.38103 | 31 ft | 10 kts | 133° |
| 2026-04-28 06:09 | -6.97700 | 110.38076 | 31 ft | 6 kts | 313° |
| 2026-04-28 06:09 | -6.97695 | 110.38070 | 31 ft | 0 kts | 310° |
| 2026-04-28 06:09 | -6.97687 | 110.38062 | 31 ft | 13 kts | 310° |
| 2026-04-28 06:09 | -6.97457 | 110.37791 | 30 ft | 85 kts | 310° |
| 2026-04-28 06:10 | -6.96933 | 110.37166 | 24 ft | 145 kts | 310° |
| 2026-04-28 06:10 | -6.96183 | 110.36282 | 282 ft | 171 kts | 311° |
| 2026-04-28 06:10 | -6.95415 | 110.35380 | 929 ft | 169 kts | 312° |
| 2026-04-28 06:10 | -6.94657 | 110.34490 | 1562 ft | 169 kts | 310° |
| 2026-04-28 06:11 | -6.93986 | 110.33525 | 1944 ft | 174 kts | 305° |
| 2026-04-28 06:11 | -6.93301 | 110.32449 | 2210 ft | 188 kts | 304° |
| 2026-04-28 06:11 | -6.92564 | 110.31278 | 2485 ft | 203 kts | 304° |
| 2026-04-28 06:11 | -6.91780 | 110.30034 | 2766 ft | 218 kts | 304° |
| 2026-04-28 06:12 | -6.90942 | 110.28707 | 3044 ft | 235 kts | 304° |
| 2026-04-28 06:12 | -6.90013 | 110.27239 | 3306 ft | 257 kts | 304° |
| 2026-04-28 06:12 | -6.89019 | 110.25664 | 3698 ft | 273 kts | 304° |
| 2026-04-28 06:12 | -6.87979 | 110.24019 | 4315 ft | 280 kts | 303° |
| 2026-04-28 06:13 | -6.86921 | 110.22340 | 5032 ft | 283 kts | 304° |
| 2026-04-28 06:13 | -6.85858 | 110.20657 | 5728 ft | 288 kts | 304° |
| 2026-04-28 06:13 | -6.84773 | 110.18940 | 6447 ft | 291 kts | 304° |
| 2026-04-28 06:13 | -6.83672 | 110.17197 | 7157 ft | 296 kts | 304° |
| 2026-04-28 06:14 | -6.82563 | 110.15443 | 7877 ft | 300 kts | 304° |
| 2026-04-28 06:14 | -6.81430 | 110.13653 | 8604 ft | 304 kts | 304° |
| 2026-04-28 06:14 | -6.80291 | 110.11852 | 9309 ft | 307 kts | 304° |
| 2026-04-28 06:14 | -6.79136 | 110.10027 | 10034 ft | 309 kts | 304° |
| 2026-04-28 06:15 | -6.77970 | 110.08188 | 10623 ft | 317 kts | 304° |
| 2026-04-28 06:15 | -6.76744 | 110.06255 | 10941 ft | 334 kts | 304° |
| 2026-04-28 06:15 | -6.75465 | 110.04239 | 11333 ft | 346 kts | 304° |
| 2026-04-28 06:15 | -6.74157 | 110.02175 | 11967 ft | 349 kts | 304° |
| 2026-04-28 06:16 | -6.72840 | 110.00095 | 12656 ft | 350 kts | 304° |
| 2026-04-28 06:16 | -6.71519 | 109.98006 | 13309 ft | 351 kts | 304° |
| 2026-04-28 06:16 | -6.70215 | 109.95946 | 13918 ft | 353 kts | 304° |
| 2026-04-28 06:16 | -6.68891 | 109.93853 | 14485 ft | 355 kts | 304° |
| 2026-04-28 06:17 | -6.67553 | 109.91740 | 15040 ft | 358 kts | 304° |
| 2026-04-28 06:17 | -6.66211 | 109.89622 | 15575 ft | 360 kts | 304° |
| 2026-04-28 06:17 | -6.64855 | 109.87483 | 16091 ft | 363 kts | 304° |
| 2026-04-28 06:18 | -6.62104 | 109.83147 | 17068 ft | 368 kts | 304° |
| 2026-04-28 06:18 | -6.60717 | 109.80960 | 17521 ft | 371 kts | 304° |
| 2026-04-28 06:18 | -6.59319 | 109.78758 | 17952 ft | 374 kts | 304° |
| 2026-04-28 06:18 | -6.57911 | 109.76540 | 18368 ft | 378 kts | 304° |
| 2026-04-28 06:19 | -6.56496 | 109.74309 | 18767 ft | 381 kts | 304° |
| 2026-04-28 06:19 | -6.55049 | 109.72031 | 19148 ft | 384 kts | 304° |
| 2026-04-28 06:19 | -6.53598 | 109.69743 | 19522 ft | 388 kts | 304° |
| 2026-04-28 06:19 | -6.52120 | 109.67413 | 19897 ft | 391 kts | 303° |
| 2026-04-28 06:20 | -6.50636 | 109.65076 | 20261 ft | 394 kts | 303° |
| 2026-04-28 06:20 | -6.49150 | 109.62733 | 20621 ft | 398 kts | 303° |
| 2026-04-28 06:20 | -6.47637 | 109.60349 | 20972 ft | 401 kts | 303° |
| 2026-04-28 06:20 | -6.46122 | 109.57964 | 21310 ft | 404 kts | 303° |
| 2026-04-28 06:21 | -6.44582 | 109.55538 | 21640 ft | 407 kts | 303° |
| 2026-04-28 06:21 | -6.43063 | 109.53144 | 21981 ft | 410 kts | 303° |
| 2026-04-28 06:21 | -6.41517 | 109.50708 | 22302 ft | 413 kts | 303° |
| 2026-04-28 06:21 | -6.39951 | 109.48243 | 22636 ft | 416 kts | 303° |
| 2026-04-28 06:22 | -6.38375 | 109.45761 | 23004 ft | 417 kts | 303° |
| 2026-04-28 06:22 | -6.36807 | 109.43294 | 23368 ft | 419 kts | 302° |
| 2026-04-28 06:22 | -6.35228 | 109.40807 | 23702 ft | 421 kts | 302° |
| 2026-04-28 06:22 | -6.33640 | 109.38307 | 24058 ft | 423 kts | 303° |
| 2026-04-28 06:23 | -6.32049 | 109.35786 | 24398 ft | 424 kts | 300° |
| 2026-04-28 06:23 | -6.30806 | 109.33102 | 24716 ft | 426 kts | 288° |
| 2026-04-28 06:23 | -6.30143 | 109.30170 | 25041 ft | 428 kts | 276° |
| 2026-04-28 06:23 | -6.30025 | 109.27165 | 25356 ft | 429 kts | 270° |
| 2026-04-28 06:24 | -6.30051 | 109.24186 | 25671 ft | 431 kts | 269° |
| 2026-04-28 06:24 | -6.30094 | 109.21156 | 25801 ft | 433 kts | 269° |
| 2026-04-28 06:24 | -6.30130 | 109.18105 | 25806 ft | 433 kts | 269° |
| 2026-04-28 06:24 | -6.30156 | 109.15040 | 25814 ft | 442 kts | 269° |
| 2026-04-28 06:25 | -6.30178 | 109.11903 | 25814 ft | 451 kts | 269° |
| 2026-04-28 06:25 | -6.30195 | 109.08746 | 25817 ft | 457 kts | 269° |
| 2026-04-28 06:25 | -6.30209 | 109.05537 | 25819 ft | 459 kts | 269° |
| 2026-04-28 06:25 | -6.30223 | 109.02307 | 25820 ft | 459 kts | 269° |
| 2026-04-28 06:26 | -6.30235 | 108.99084 | 25820 ft | 459 kts | 269° |
| 2026-04-28 06:26 | -6.30248 | 108.95866 | 25820 ft | 464 kts | 269° |
| 2026-04-28 06:26 | -6.30260 | 108.92570 | 25819 ft | 471 kts | 269° |
| 2026-04-28 06:26 | -6.30272 | 108.89232 | 25818 ft | 478 kts | 269° |
| 2026-04-28 06:27 | -6.30285 | 108.85894 | 25817 ft | 483 kts | 269° |
| 2026-04-28 06:27 | -6.30296 | 108.82470 | 25816 ft | 486 kts | 269° |
| 2026-04-28 06:27 | -6.30307 | 108.79099 | 25817 ft | 488 kts | 269° |
| 2026-04-28 06:27 | -6.30318 | 108.75674 | 25817 ft | 488 kts | 269° |
| 2026-04-28 06:28 | -6.30330 | 108.72221 | 25817 ft | 487 kts | 269° |
| 2026-04-28 06:28 | -6.30340 | 108.68855 | 25817 ft | 487 kts | 269° |
| 2026-04-28 06:28 | -6.30350 | 108.65445 | 25817 ft | 487 kts | 269° |
| 2026-04-28 06:28 | -6.30360 | 108.62018 | 25818 ft | 487 kts | 269° |
| 2026-04-28 06:29 | -6.30369 | 108.58592 | 25818 ft | 487 kts | 269° |
| 2026-04-28 06:29 | -6.30378 | 108.55187 | 25820 ft | 487 kts | 269° |
| 2026-04-28 06:29 | -6.30387 | 108.51727 | 25822 ft | 487 kts | 269° |
| 2026-04-28 06:29 | -6.30396 | 108.48308 | 25823 ft | 486 kts | 269° |
| 2026-04-28 06:30 | -6.30403 | 108.44889 | 25824 ft | 486 kts | 269° |
| 2026-04-28 06:30 | -6.30412 | 108.41476 | 25824 ft | 487 kts | 269° |
| 2026-04-28 06:30 | -6.30401 | 108.38046 | 25825 ft | 487 kts | 271° |
| 2026-04-28 06:30 | -6.30185 | 108.34654 | 25824 ft | 487 kts | 276° |
| 2026-04-28 06:31 | -6.29698 | 108.31240 | 25825 ft | 487 kts | 280° |
| 2026-04-28 06:31 | -6.28963 | 108.27899 | 25827 ft | 487 kts | 284° |
| 2026-04-28 06:31 | -6.28129 | 108.24558 | 25825 ft | 488 kts | 284° |
| 2026-04-28 06:31 | -6.27286 | 108.21251 | 25824 ft | 488 kts | 284° |
| 2026-04-28 06:32 | -6.26450 | 108.17970 | 25817 ft | 471 kts | 284° |
| 2026-04-28 06:32 | -6.25652 | 108.14821 | 25575 ft | 462 kts | 284° |
| 2026-04-28 06:32 | -6.24863 | 108.11690 | 25210 ft | 456 kts | 284° |
| 2026-04-28 06:32 | -6.24088 | 108.08604 | 24905 ft | 453 kts | 284° |
| 2026-04-28 06:33 | -6.23322 | 108.05546 | 24598 ft | 449 kts | 284° |
| 2026-04-28 06:33 | -6.22557 | 108.02494 | 24089 ft | 443 kts | 284° |
| 2026-04-28 06:33 | -6.21835 | 107.99470 | 23407 ft | 440 kts | 281° |
| 2026-04-28 06:33 | -6.21357 | 107.96444 | 22733 ft | 437 kts | 275° |
| 2026-04-28 06:34 | -6.21149 | 107.93399 | 22151 ft | 432 kts | 271° |
| 2026-04-28 06:34 | -6.21071 | 107.90426 | 21620 ft | 427 kts | 270° |
| 2026-04-28 06:34 | -6.21016 | 107.87444 | 21088 ft | 422 kts | 270° |
| 2026-04-28 06:34 | -6.20962 | 107.84529 | 20569 ft | 417 kts | 270° |
| 2026-04-28 06:35 | -6.20902 | 107.81567 | 20050 ft | 413 kts | 270° |
| 2026-04-28 06:35 | -6.20841 | 107.78728 | 19551 ft | 409 kts | 271° |
| 2026-04-28 06:35 | -6.20777 | 107.75871 | 19050 ft | 405 kts | 271° |
| 2026-04-28 06:35 | -6.20712 | 107.73061 | 18558 ft | 402 kts | 271° |
| 2026-04-28 06:36 | -6.20646 | 107.70267 | 18044 ft | 399 kts | 271° |
| 2026-04-28 06:36 | -6.20581 | 107.67459 | 17546 ft | 396 kts | 271° |
| 2026-04-28 06:36 | -6.20517 | 107.64692 | 17042 ft | 393 kts | 271° |
| 2026-04-28 06:36 | -6.20451 | 107.61937 | 16537 ft | 391 kts | 271° |
| 2026-04-28 06:37 | -6.20384 | 107.59242 | 16076 ft | 388 kts | 271° |
| 2026-04-28 06:37 | -6.20316 | 107.56501 | 15581 ft | 386 kts | 271° |
| 2026-04-28 06:37 | -6.20249 | 107.53811 | 15113 ft | 384 kts | 271° |
| 2026-04-28 06:37 | -6.20180 | 107.51106 | 14595 ft | 383 kts | 271° |
| 2026-04-28 06:38 | -6.20113 | 107.48435 | 14113 ft | 380 kts | 271° |
| 2026-04-28 06:38 | -6.20046 | 107.45808 | 13635 ft | 378 kts | 271° |
| 2026-04-28 06:38 | -6.19979 | 107.43168 | 13166 ft | 376 kts | 270° |
| 2026-04-28 06:38 | -6.19912 | 107.40540 | 12678 ft | 373 kts | 271° |
| 2026-04-28 06:39 | -6.19845 | 107.37909 | 12196 ft | 370 kts | 271° |
| 2026-04-28 06:39 | -6.19779 | 107.35345 | 11702 ft | 367 kts | 271° |
| 2026-04-28 06:39 | -6.19713 | 107.32760 | 11213 ft | 364 kts | 271° |
| 2026-04-28 06:39 | -6.19738 | 107.30240 | 10721 ft | 361 kts | 262° |
| 2026-04-28 06:40 | -6.20438 | 107.27831 | 10344 ft | 349 kts | 243° |
| 2026-04-28 06:40 | -6.21642 | 107.25776 | 10217 ft | 333 kts | 236° |
| 2026-04-28 06:40 | -6.22885 | 107.23859 | 10101 ft | 319 kts | 235° |
| 2026-04-28 06:40 | -6.24100 | 107.21993 | 9887 ft | 310 kts | 235° |
| 2026-04-28 06:41 | -6.25265 | 107.20183 | 9497 ft | 309 kts | 236° |
| 2026-04-28 06:41 | -6.26431 | 107.18357 | 9104 ft | 306 kts | 236° |
| 2026-04-28 06:41 | -6.27571 | 107.16558 | 8757 ft | 303 kts | 236° |
| 2026-04-28 06:41 | -6.28718 | 107.14742 | 8401 ft | 301 kts | 236° |
| 2026-04-28 06:42 | -6.29837 | 107.12966 | 8035 ft | 299 kts | 237° |
| 2026-04-28 06:42 | -6.30941 | 107.11180 | 7686 ft | 296 kts | 237° |
| 2026-04-28 06:42 | -6.32013 | 107.09431 | 7338 ft | 293 kts | 237° |
| 2026-04-28 06:42 | -6.33089 | 107.07671 | 7011 ft | 291 kts | 238° |
| 2026-04-28 06:43 | -6.34142 | 107.05951 | 6657 ft | 289 kts | 238° |
| 2026-04-28 06:43 | -6.35205 | 107.04216 | 6299 ft | 287 kts | 238° |
| 2026-04-28 06:43 | -6.36263 | 107.02491 | 5958 ft | 285 kts | 238° |
| 2026-04-28 06:43 | -6.37302 | 107.00796 | 5619 ft | 283 kts | 238° |
| 2026-04-28 06:44 | -6.38344 | 106.99096 | 5275 ft | 282 kts | 238° |
| 2026-04-28 06:44 | -6.39359 | 106.97440 | 5016 ft | 276 kts | 238° |
| 2026-04-28 06:44 | -6.40278 | 106.95763 | 4988 ft | 260 kts | 248° |
| 2026-04-28 06:44 | -6.40792 | 106.94029 | 5043 ft | 250 kts | 258° |
| 2026-04-28 06:45 | -6.41106 | 106.92358 | 5024 ft | 238 kts | 261° |
| 2026-04-28 06:45 | -6.41391 | 106.90698 | 5016 ft | 237 kts | 261° |
| 2026-04-28 06:45 | -6.41676 | 106.89059 | 5010 ft | 237 kts | 260° |
| 2026-04-28 06:45 | -6.41969 | 106.87423 | 5016 ft | 237 kts | 260° |
| 2026-04-28 06:46 | -6.42270 | 106.85784 | 5055 ft | 237 kts | 260° |
| 2026-04-28 06:46 | -6.42570 | 106.84157 | 5071 ft | 234 kts | 260° |
| 2026-04-28 06:46 | -6.42868 | 106.82547 | 4880 ft | 230 kts | 259° |
| 2026-04-28 06:46 | -6.43159 | 106.80984 | 4677 ft | 225 kts | 260° |
| 2026-04-28 06:47 | -6.43237 | 106.79442 | 4458 ft | 219 kts | 287° |
| 2026-04-28 06:47 | -6.42429 | 106.78204 | 4187 ft | 209 kts | 327° |
| 2026-04-28 06:47 | -6.41148 | 106.77576 | 3923 ft | 199 kts | 339° |
| 2026-04-28 06:47 | -6.39897 | 106.77066 | 3740 ft | 185 kts | 339° |
| 2026-04-28 06:48 | -6.38723 | 106.76570 | 3468 ft | 177 kts | 338° |
| 2026-04-28 06:48 | -6.37606 | 106.76082 | 3245 ft | 171 kts | 338° |
| 2026-04-28 06:48 | -6.36496 | 106.75590 | 3034 ft | 171 kts | 337° |
| 2026-04-28 06:48 | -6.35417 | 106.75106 | 2827 ft | 170 kts | 338° |
| 2026-04-28 06:49 | -6.34318 | 106.74611 | 2640 ft | 167 kts | 338° |
| 2026-04-28 06:49 | -6.33243 | 106.74378 | 2518 ft | 152 kts | 11° |
| 2026-04-28 06:49 | -6.32313 | 106.74837 | 2482 ft | 150 kts | 46° |
| 2026-04-28 06:49 | -6.31812 | 106.75742 | 2511 ft | 145 kts | 71° |
| 2026-04-28 06:50 | -6.31528 | 106.76719 | 2454 ft | 142 kts | 74° |
| 2026-04-28 06:50 | -6.31270 | 106.77661 | 2252 ft | 140 kts | 73° |
| 2026-04-28 06:50 | -6.31008 | 106.78606 | 2057 ft | 139 kts | 73° |
| 2026-04-28 06:50 | -6.30739 | 106.79546 | 1868 ft | 139 kts | 73° |
| 2026-04-28 06:51 | -6.30468 | 106.80488 | 1683 ft | 138 kts | 72° |
| 2026-04-28 06:51 | -6.30171 | 106.81415 | 1497 ft | 138 kts | 67° |
| 2026-04-28 06:51 | -6.29785 | 106.82291 | 1320 ft | 138 kts | 64° |
| 2026-04-28 06:51 | -6.29382 | 106.83174 | 1137 ft | 137 kts | 64° |
| 2026-04-28 06:52 | -6.28991 | 106.84045 | 960 ft | 137 kts | 65° |
| 2026-04-28 06:52 | -6.28593 | 106.84914 | 774 ft | 136 kts | 64° |
| 2026-04-28 06:52 | -6.28191 | 106.85784 | 576 ft | 136 kts | 64° |
| 2026-04-28 06:52 | -6.27791 | 106.86640 | 381 ft | 136 kts | 63° |
| 2026-04-28 06:53 | -6.27403 | 106.87502 | 216 ft | 133 kts | 64° |
| 2026-04-28 06:53 | -6.27012 | 106.88343 | 93 ft | 125 kts | 63° |
| 2026-04-28 06:53 | -6.26730 | 106.88953 | 89 ft | 60 kts | 65° |
| 2026-04-28 06:53 | -6.26634 | 106.89164 | 89 ft | 12 kts | 65° |
| 2026-04-28 06:54 | -6.26572 | 106.89208 | 90 ft | 10 kts | 344° |
| 2026-04-28 06:54 | -6.26545 | 106.89161 | 89 ft | 6 kts | 287° |
| 2026-04-28 06:54 | -6.26528 | 106.89107 | 88 ft | 9 kts | 288° |
| 2026-04-28 06:54 | -6.26505 | 106.89040 | 87 ft | 8 kts | 290° |
| 2026-04-28 06:55 | -6.26499 | 106.88982 | 86 ft | 7 kts | 252° |
| 2026-04-28 06:55 | -6.26517 | 106.88944 | 87 ft | 5 kts | 244° |
| 2026-04-28 06:55 | -6.26533 | 106.88911 | 88 ft | 4 kts | 244° |
| 2026-04-28 06:55 | -6.26547 | 106.88881 | 89 ft | 5 kts | 245° |
| 2026-04-28 06:56 | -6.26569 | 106.88835 | 89 ft | 9 kts | 245° |
| 2026-04-28 06:56 | -6.26599 | 106.88767 | 90 ft | 10 kts | 246° |
| 2026-04-28 06:56 | -6.26631 | 106.88693 | 90 ft | 12 kts | 246° |
| 2026-04-28 06:56 | -6.26667 | 106.88615 | 90 ft | 12 kts | 245° |
| 2026-04-28 06:57 | -6.26689 | 106.88567 | 91 ft | 3 kts | 245° |
| 2026-04-28 06:57 | -6.26690 | 106.88550 | 91 ft | 2 kts | 307° |
| 2026-04-28 06:57 | -6.26671 | 106.88543 | 91 ft | 3 kts | 345° |
| 2026-04-28 06:57 | -6.26654 | 106.88536 | 92 ft | 2 kts | 335° |
| 2026-04-28 06:58 | -6.26648 | 106.88533 | 92 ft | 0 kts | 335° |